^^
Station Historical Data
Daily Summary for January 12, 2017 Units:  Metric    English   Both
« Previous Day
Next Day »
Daily Weekly Monthly Yearly Custom
  High: Low: Average:
Temperature: 34.3 °C 17.2 °C 23.4 °C
Dew Point: 14.1 °C 6.1 °C 11.6 °C
Humidity: 79% 20% 54%
Wind Speed: 27.4km/h 11.1km/h 17.9km/h
Wind Gust: 35.4km/h - -
Wind- - SSW
Pressure: 1008.4 hPa 1004.6 hPa -
Precipitation: 0 mm    
Historical Graphs
 
 
Tabular Data for January 12, 2017
Time Temperature Dew Point Pressure Wind Wind Speed Wind Gust Humidity Rainfall Rate (Hourly) solar Conditions
00:46 21.4 °C 11.1 °C 1007 hPa SSW 17.7 km/h 22.5 km/h 52% 0 mm 0.0 W/m2
00:51 21.4 °C 11.1 °C 1007.3 hPa SSW 13 km/h 20.9 km/h 52% 0 mm 0.0 W/m2
01:01 21.1 °C 11.7 °C 1007 hPa SSW 20.9 km/h 25.7 km/h 55% 0 mm 0.0 W/m2
01:11 21 °C 11.9 °C 1007 hPa SSW 14.3 km/h 19.3 km/h 56% 0 mm 0.0 W/m2
01:21 20.9 °C 12.1 °C 1007.3 hPa SSW 19.5 km/h 24.1 km/h 57% 0 mm 0.0 W/m2
01:26 20.8 °C 12.2 °C 1007.3 hPa SSW 17.7 km/h 22.5 km/h 58% 0 mm 0.0 W/m2
01:32 20.6 °C 12.3 °C 1007 hPa SSW 14.3 km/h 25.7 km/h 59% 0 mm 0.0 W/m2
01:37 20.5 °C 12.2 °C 1007 hPa SSW 16.3 km/h 24.1 km/h 59% 0 mm 0.0 W/m2
01:42 20.4 °C 12.4 °C 1007 hPa SSW 19.5 km/h 24.1 km/h 60% 0 mm 0.0 W/m2
01:52 20.1 °C 12.3 °C 1007 hPa SSW 11.1 km/h 17.7 km/h 61% 0 mm 0.0 W/m2
01:57 20 °C 12.5 °C 1007.3 hPa SSW 19.5 km/h 22.5 km/h 62% 0 mm 0.0 W/m2
02:02 19.9 °C 12.4 °C 1007 hPa SSW 16.3 km/h 22.5 km/h 62% 0 mm 0.0 W/m2
02:12 19.7 °C 12.2 °C 1007 hPa SSW 14.3 km/h 19.3 km/h 62% 0 mm 0.0 W/m2
02:17 19.6 °C 12.4 °C 1007 hPa SSW 22.7 km/h 24.1 km/h 63% 0 mm 0.0 W/m2
02:22 19.4 °C 12.4 °C 1007 hPa SSW 22.7 km/h 24.1 km/h 64% 0 mm 0.0 W/m2
02:27 19.3 °C 12.6 °C 1007 hPa SSW 11.1 km/h 20.9 km/h 65% 0 mm 0.0 W/m2
02:32 19.3 °C 12.8 °C 1007 hPa SSW 19.5 km/h 19.5 km/h 66% 0 mm 0.0 W/m2
02:42 19.2 °C 12.9 °C 1006.7 hPa SSW 14.3 km/h 19.3 km/h 67% 0 mm 0.0 W/m2
02:47 19.1 °C 12.8 °C 1006.7 hPa SSW 13 km/h 16.1 km/h 67% 0 mm 0.0 W/m2
02:53 19.1 °C 12.8 °C 1006.7 hPa SSW 11.1 km/h 19.3 km/h 67% 0 mm 0.0 W/m2
03:03 18.9 °C 12.9 °C 1006.3 hPa SSW 14.3 km/h 19.3 km/h 68% 0 mm 0.0 W/m2
03:13 18.8 °C 13 °C 1006.3 hPa SSW 17.7 km/h 19.3 km/h 69% 0 mm 0.0 W/m2
03:18 18.7 °C 13.1 °C 1006.3 hPa SSW 19.5 km/h 24.1 km/h 70% 0 mm 0.0 W/m2
03:23 18.7 °C 13.1 °C 1006.3 hPa SSW 13 km/h 19.3 km/h 70% 0 mm 0.0 W/m2
03:28 18.7 °C 13.1 °C 1006.3 hPa SSW 16.3 km/h 20.9 km/h 70% 0 mm 0.0 W/m2
03:33 18.7 °C 13.1 °C 1006 hPa SSW 16.3 km/h 22.5 km/h 70% 0 mm 0.0 W/m2
03:38 18.6 °C 13 °C 1006 hPa SSW 13 km/h 20.9 km/h 70% 0 mm 0.0 W/m2
03:43 18.6 °C 13.2 °C 1006 hPa SSW 19.5 km/h 20.9 km/h 71% 0 mm 0.0 W/m2
03:48 18.5 °C 13.1 °C 1006 hPa SSW 14.3 km/h 19.3 km/h 71% 0 mm 0.0 W/m2
03:53 18.4 °C 13 °C 1006 hPa SSW 16.3 km/h 19.3 km/h 71% 0 mm 0.0 W/m2
03:59 18.4 °C 13 °C 1006 hPa SSW 16.3 km/h 17.7 km/h 71% 0 mm 0.0 W/m2
04:04 18.4 °C 13.3 °C 1006 hPa SSW 19.5 km/h 19.5 km/h 72% 0 mm 0.0 W/m2
04:09 18.4 °C 13.3 °C 1006 hPa SSW 11.1 km/h 17.7 km/h 72% 0 mm 0.0 W/m2
04:14 18.3 °C 13.2 °C 1006 hPa SSW 14.3 km/h 16.1 km/h 72% 0 mm 0.0 W/m2
04:19 18.2 °C 13.3 °C 1006 hPa SW 17.7 km/h 20.9 km/h 73% 0 mm 0.0 W/m2
04:24 18.1 °C 13.4 °C 1005.6 hPa SW 20.9 km/h 22.5 km/h 74% 0 mm 0.0 W/m2
04:34 17.8 °C 13.3 °C 1006 hPa SW 22.7 km/h 25.7 km/h 75% 0 mm 0.0 W/m2
04:44 17.8 °C 13.5 °C 1006 hPa SW 20.9 km/h 22.5 km/h 76% 0 mm 0.0 W/m2
04:49 17.7 °C 13.4 °C 1006.3 hPa SW 16.3 km/h 22.5 km/h 76% 0 mm 0.0 W/m2
04:54 17.7 °C 13.4 °C 1006 hPa SW 16.3 km/h 20.9 km/h 76% 0 mm 0.0 W/m2
04:59 17.7 °C 13.4 °C 1006 hPa SW 20.9 km/h 24.1 km/h 76% 0 mm 0.0 W/m2
05:04 17.7 °C 13.4 °C 1006.3 hPa SW 16.3 km/h 19.3 km/h 76% 0 mm 0.0 W/m2
05:09 17.6 °C 13.3 °C 1006.3 hPa SW 13 km/h 16.1 km/h 76% 0 mm 0.0 W/m2
05:14 17.6 °C 13.3 °C 1006.3 hPa SW 17.7 km/h 19.3 km/h 76% 0 mm 0.0 W/m2
05:19 17.5 °C 13.4 °C 1006.3 hPa SW 14.3 km/h 19.3 km/h 77% 0 mm 0.0 W/m2
05:24 17.4 °C 13.3 °C 1006.3 hPa SW 16.3 km/h 20.9 km/h 77% 0 mm 0.0 W/m2
05:29 17.4 °C 13.3 °C 1006.7 hPa SW 11.1 km/h 14.5 km/h 77% 0 mm 0.0 W/m2
05:39 17.3 °C 13.4 °C 1006.3 hPa SW 11.1 km/h 17.7 km/h 78% 0 mm 0.0 W/m2
05:44 17.3 °C 13.4 °C 1006.7 hPa SW 14.3 km/h 20.9 km/h 78% 0 mm 0.0 W/m2
05:50 17.3 °C 13.4 °C 1006.7 hPa SW 16.3 km/h 17.7 km/h 78% 0 mm 0.0 W/m2
05:55 17.2 °C 13.3 °C 1006.7 hPa SW 20.9 km/h 22.5 km/h 78% 0 mm 0.0 W/m2
06:01 17.2 °C 13.3 °C 1006.7 hPa SW 19.5 km/h 24.1 km/h 78% 0 mm 0.0 W/m2
06:06 17.2 °C 13.5 °C 1006.7 hPa SW 17.7 km/h 24.1 km/h 79% 0 mm 0.0 W/m2
06:11 17.2 °C 13.5 °C 1006.7 hPa SW 14.3 km/h 20.9 km/h 79% 0 mm 5.0 W/m2
06:14 17.2 °C 13.5 °C 1006.7 hPa SW 19.5 km/h 20.9 km/h 79% 0 mm 11.0 W/m2
06:29 17.2 °C 13.5 °C 1007 hPa SW 19.5 km/h 24.1 km/h 79% 0 mm 25.0 W/m2
06:40 17.4 °C 13.5 °C 1007.3 hPa SW 17.7 km/h 19.3 km/h 78% 0 mm 40.0 W/m2
06:49 17.6 °C 13.5 °C 1007.3 hPa SW 19.5 km/h 24.1 km/h 77% 0 mm 70.0 W/m2
07:11 17.7 °C 13.6 °C 1007.7 hPa SW 20.9 km/h 25.7 km/h 77% 0 mm 91.0 W/m2
07:25 17.8 °C 13.5 °C 1007.7 hPa SW 16.3 km/h 25.7 km/h 76% 0 mm 120.0 W/m2
07:34 18 °C 13.5 °C 1008 hPa SW 17.7 km/h 25.7 km/h 75% 0 mm 90.0 W/m2
07:49 18.1 °C 13.6 °C 1008 hPa SW 22.7 km/h 25.7 km/h 75% 0 mm 144.0 W/m2
08:08 18.7 °C 13.8 °C 1008 hPa SW 20.9 km/h 25.7 km/h 73% 0 mm 204.0 W/m2
08:14 19 °C 13.6 °C 1008.4 hPa SW 20.9 km/h 25.7 km/h 71% 0 mm 176.0 W/m2
08:30 19.9 °C 13.8 °C 1008.4 hPa SW 24.1 km/h 25.7 km/h 68% 0 mm 327.0 W/m2
08:51 20.2 °C 13.9 °C 1008.4 hPa SW 24.1 km/h 27.4 km/h 67% 0 mm 380.0 W/m2
09:06 20.6 °C 14 °C 1008.4 hPa SW 16.3 km/h 27.4 km/h 66% 0 mm 336.0 W/m2
09:15 20.8 °C 14 °C 1008.4 hPa SW 16.3 km/h 25.7 km/h 65% 0 mm 445.0 W/m2
09:36 21.6 °C 14 °C 1008.4 hPa SW 19.5 km/h 22.5 km/h 62% 0 mm 515.0 W/m2
09:48 22.2 °C 14.1 °C 1008.4 hPa SW 17.7 km/h 20.9 km/h 60% 0 mm 529.0 W/m2
09:58 22.7 °C 14 °C 1008 hPa SW 17.7 km/h 22.5 km/h 58% 0 mm 531.0 W/m2
10:05 23 °C 14 °C 1008 hPa SW 17.7 km/h 20.9 km/h 57% 0 mm 726.0 W/m2
14:58 33.5 °C 10.2 °C 1005.3 hPa SSW 25.9 km/h 27.4 km/h 24% 0 mm 856.0 W/m2
15:03 33.8 °C 11.6 °C 1005.3 hPa South 17.7 km/h 30.6 km/h 26% 0 mm 853.0 W/m2
15:08 33.7 °C 10.3 °C 1005.3 hPa SSW 25.9 km/h 27.4 km/h 24% 0 mm 838.0 W/m2
15:18 34.2 °C 10.7 °C 1005.3 hPa South 24.1 km/h 32.2 km/h 24% 0 mm 819.0 W/m2
15:25 34.1 °C 9.4 °C 1005.3 hPa SSE 13 km/h 20.9 km/h 22% 0 mm 807.0 W/m2
15:27 34 °C 9.9 °C 1005 hPa SSE 16.3 km/h 24.1 km/h 23% 0 mm 788.0 W/m2
15:35 34.1 °C 9.4 °C 1005.3 hPa SSW 14.3 km/h 29 km/h 22% 0 mm 779.0 W/m2
16:08 33.9 °C 9.2 °C 1005 hPa South 14.3 km/h 27.4 km/h 22% 0 mm 694.0 W/m2
16:12 34.1 °C 8 °C 1005 hPa South 22.7 km/h 27.4 km/h 20% 0 mm 677.0 W/m2
16:16 34.1 °C 8 °C 1005 hPa South 22.7 km/h 27.4 km/h 20% 0 mm 677.0 W/m2
16:27 34.1 °C 8.7 °C 1004.6 hPa SSW 14.3 km/h 25.7 km/h 21% 0 mm 643.0 W/m2
16:32 34 °C 7.9 °C 1004.6 hPa SSW 17.7 km/h 22.5 km/h 20% 0 mm 608.0 W/m2
16:53 34.2 °C 8 °C 1004.6 hPa SSW 13 km/h 22.5 km/h 20% 0 mm 566.0 W/m2
17:08 34.1 °C 8.7 °C 1004.6 hPa South 22.7 km/h 27.4 km/h 21% 0 mm 513.0 W/m2
17:22 34.2 °C 8.8 °C 1004.6 hPa SSE 19.5 km/h 24.1 km/h 21% 0 mm 469.0 W/m2
17:33 34.2 °C 8.8 °C 1005 hPa SSW 11.1 km/h 20.9 km/h 21% 0 mm 434.0 W/m2
17:43 34.3 °C 8.8 °C 1005 hPa SSW 19.5 km/h 24.1 km/h 21% 0 mm 403.0 W/m2
17:53 33.9 °C 9.2 °C 1005 hPa SSW 20.9 km/h 25.7 km/h 22% 0 mm 360.0 W/m2
18:04 33.9 °C 9.9 °C 1005 hPa South 20.9 km/h 25.7 km/h 23% 0 mm 318.0 W/m2
18:12 33.6 °C 10.2 °C 1005 hPa South 27.4 km/h 30.6 km/h 24% 0 mm 292.0 W/m2
18:23 33.5 °C 10.2 °C 1005.3 hPa SW 24.1 km/h 35.4 km/h 24% 0 mm 285.0 W/m2
18:28 33.4 °C 10.1 °C 1005.3 hPa South 20.9 km/h 25.7 km/h 24% 0 mm 230.0 W/m2
18:48 32.9 °C 9 °C 1005.3 hPa South 24.1 km/h 32.2 km/h 23% 0 mm 144.0 W/m2
18:53 32.7 °C 8.9 °C 1005.6 hPa SSW 27.4 km/h 30.6 km/h 23% 0 mm 111.0 W/m2
19:14 32.5 °C 8 °C 1005.6 hPa South 25.9 km/h 27.4 km/h 22% 0 mm 54.0 W/m2
19:18 32.2 °C 7.1 °C 1005.6 hPa South 13 km/h 30.6 km/h 21% 0 mm 25.0 W/m2
19:40 31.8 °C 6.1 °C 1005.6 hPa South 14.3 km/h 24.1 km/h 20% 0 mm 14.0 W/m2
19:55 31.3 °C 7 °C 1006 hPa South 19.5 km/h 27.4 km/h 22% 0 mm 0.0 W/m2
20:10 30.9 °C 8.6 °C 1006.3 hPa South 14.3 km/h 24.1 km/h 25% 0 mm 0.0 W/m2
20:19 30.8 °C 9.1 °C 1006.3 hPa South 22.7 km/h 22.7 km/h 26% 0 mm 0.0 W/m2
20:26 30.7 °C 8.4 °C 1006.3 hPa South 22.7 km/h 27.4 km/h 25% 0 mm 0.0 W/m2
23:00 25.7 °C 6.8 °C 1008.4 hPa SW 20.9 km/h 24.1 km/h 30% 0 mm 0.0 W/m2
23:08 25.6 °C 7.2 °C 1008.4 hPa SSW 13 km/h 24.1 km/h 31% 0 mm 0.0 W/m2
23:17 25.4 °C 7 °C 1008.4 hPa South 22.7 km/h 24.1 km/h 31% 0 mm 0.0 W/m2
23:22 25.2 °C 7.3 °C 1008.4 hPa South 16.3 km/h 25.7 km/h 32% 0 mm 0.0 W/m2
23:32 24.9 °C 8 °C 1008.4 hPa South 17.7 km/h 22.5 km/h 34% 0 mm 0.0 W/m2
23:37 24.8 °C 8.3 °C 1008.4 hPa SSW 11.1 km/h 20.9 km/h 35% 0 mm 0.0 W/m2
23:42 24.6 °C 8.1 °C 1008.4 hPa SSW 11.1 km/h 17.7 km/h 35% 0 mm 0.0 W/m2
23:47 24.4 °C 8.4 °C 1008.4 hPa SW 14.3 km/h 17.7 km/h 36% 0 mm 0.0 W/m2
Canyon Roadhouse, Fishriver Canyon, Namibia
Compliments of Weather Underground - 2.25 mb